sensor_id;sensor_type;location;lat;lon;timestamp;P1;durP1;ratioP1;P2;durP2;ratioP2
72791;SDS011;60907;53.268;8.764;2022-09-01T00:02:04;1.35;;;0.63;;
72791;SDS011;60907;53.268;8.764;2022-09-01T00:04:32;2.25;;;0.90;;
72791;SDS011;60907;53.268;8.764;2022-09-01T00:07:03;2.50;;;0.95;;
72791;SDS011;60907;53.268;8.764;2022-09-01T00:09:29;1.58;;;0.77;;
72791;SDS011;60907;53.268;8.764;2022-09-01T00:11:55;1.55;;;0.80;;
72791;SDS011;60907;53.268;8.764;2022-09-01T00:14:23;1.80;;;0.52;;
72791;SDS011;60907;53.268;8.764;2022-09-01T00:16:50;0.95;;;0.30;;
72791;SDS011;60907;53.268;8.764;2022-09-01T00:19:16;1.30;;;0.52;;
72791;SDS011;60907;53.268;8.764;2022-09-01T00:21:42;0.70;;;0.35;;
72791;SDS011;60907;53.268;8.764;2022-09-01T00:24:09;0.40;;;0.30;;
72791;SDS011;60907;53.268;8.764;2022-09-01T00:26:35;1.20;;;0.47;;
72791;SDS011;60907;53.268;8.764;2022-09-01T00:29:01;0.65;;;0.55;;
72791;SDS011;60907;53.268;8.764;2022-09-01T00:31:27;1.08;;;0.50;;
72791;SDS011;60907;53.268;8.764;2022-09-01T00:33:52;1.10;;;0.43;;
72791;SDS011;60907;53.268;8.764;2022-09-01T00:36:18;0.82;;;0.40;;
72791;SDS011;60907;53.268;8.764;2022-09-01T00:38:45;0.93;;;0.60;;
72791;SDS011;60907;53.268;8.764;2022-09-01T00:41:11;0.68;;;0.35;;
72791;SDS011;60907;53.268;8.764;2022-09-01T00:46:07;1.02;;;0.40;;
72791;SDS011;60907;53.268;8.764;2022-09-01T00:48:34;0.95;;;0.55;;
72791;SDS011;60907;53.268;8.764;2022-09-01T00:51:01;0.77;;;0.50;;
72791;SDS011;60907;53.268;8.764;2022-09-01T00:53:27;0.68;;;0.32;;
72791;SDS011;60907;53.268;8.764;2022-09-01T00:55:53;1.13;;;0.40;;
72791;SDS011;60907;53.268;8.764;2022-09-01T00:58:19;0.82;;;0.40;;
72791;SDS011;60907;53.268;8.764;2022-09-01T01:00:44;1.15;;;0.30;;
72791;SDS011;60907;53.268;8.764;2022-09-01T01:03:12;0.77;;;0.52;;
72791;SDS011;60907;53.268;8.764;2022-09-01T01:08:10;1.40;;;0.40;;
72791;SDS011;60907;53.268;8.764;2022-09-01T01:10:37;2.05;;;0.40;;
72791;SDS011;60907;53.268;8.764;2022-09-01T01:13:10;0.93;;;0.43;;
72791;SDS011;60907;53.268;8.764;2022-09-01T01:15:38;1.00;;;0.50;;
72791;SDS011;60907;53.268;8.764;2022-09-01T01:18:07;0.80;;;0.47;;
72791;SDS011;60907;53.268;8.764;2022-09-01T01:20:39;1.67;;;0.40;;
72791;SDS011;60907;53.268;8.764;2022-09-01T01:23:35;0.70;;;0.35;;
72791;SDS011;60907;53.268;8.764;2022-09-01T01:26:04;1.13;;;0.43;;
72791;SDS011;60907;53.268;8.764;2022-09-01T01:28:32;0.75;;;0.40;;
72791;SDS011;60907;53.268;8.764;2022-09-01T01:33:31;0.52;;;0.43;;
72791;SDS011;60907;53.268;8.764;2022-09-01T01:36:06;0.90;;;0.50;;
72791;SDS011;60907;53.268;8.764;2022-09-01T01:38:37;0.75;;;0.40;;
72791;SDS011;60907;53.268;8.764;2022-09-01T01:41:07;0.85;;;0.35;;
72791;SDS011;60907;53.268;8.764;2022-09-01T01:43:34;0.90;;;0.60;;
72791;SDS011;60907;53.268;8.764;2022-09-01T01:46:00;0.60;;;0.40;;
72791;SDS011;60907;53.268;8.764;2022-09-01T01:48:27;0.60;;;0.32;;
72791;SDS011;60907;53.268;8.764;2022-09-01T01:50:54;1.60;;;0.50;;
72791;SDS011;60907;53.268;8.764;2022-09-01T01:53:24;2.20;;;0.73;;
72791;SDS011;60907;53.268;8.764;2022-09-01T01:55:49;1.05;;;0.43;;
72791;SDS011;60907;53.268;8.764;2022-09-01T01:58:16;1.08;;;0.50;;
72791;SDS011;60907;53.268;8.764;2022-09-01T02:00:44;0.73;;;0.70;;
72791;SDS011;60907;53.268;8.764;2022-09-01T02:05:37;1.38;;;0.63;;
72791;SDS011;60907;53.268;8.764;2022-09-01T02:08:05;0.70;;;0.57;;
72791;SDS011;60907;53.268;8.764;2022-09-01T02:10:37;1.00;;;0.40;;
72791;SDS011;60907;53.268;8.764;2022-09-01T02:13:06;0.70;;;0.60;;
72791;SDS011;60907;53.268;8.764;2022-09-01T02:15:33;1.48;;;0.60;;
72791;SDS011;60907;53.268;8.764;2022-09-01T02:18:08;0.98;;;0.45;;
72791;SDS011;60907;53.268;8.764;2022-09-01T02:20:44;0.98;;;0.45;;
72791;SDS011;60907;53.268;8.764;2022-09-01T02:23:12;1.05;;;0.60;;
72791;SDS011;60907;53.268;8.764;2022-09-01T02:25:41;2.05;;;0.60;;
72791;SDS011;60907;53.268;8.764;2022-09-01T02:28:09;0.95;;;0.55;;
72791;SDS011;60907;53.268;8.764;2022-09-01T02:30:40;1.67;;;0.63;;
72791;SDS011;60907;53.268;8.764;2022-09-01T02:33:10;0.63;;;0.30;;
72791;SDS011;60907;53.268;8.764;2022-09-01T02:35:42;0.95;;;0.65;;
72791;SDS011;60907;53.268;8.764;2022-09-01T02:38:08;1.40;;;0.50;;
72791;SDS011;60907;53.268;8.764;2022-09-01T02:40:33;0.73;;;0.55;;
72791;SDS011;60907;53.268;8.764;2022-09-01T02:42:59;1.60;;;0.50;;
72791;SDS011;60907;53.268;8.764;2022-09-01T02:45:26;0.75;;;0.35;;
72791;SDS011;60907;53.268;8.764;2022-09-01T02:47:53;1.27;;;0.60;;
72791;SDS011;60907;53.268;8.764;2022-09-01T02:50:21;0.90;;;0.52;;
72791;SDS011;60907;53.268;8.764;2022-09-01T02:52:49;0.93;;;0.52;;
72791;SDS011;60907;53.268;8.764;2022-09-01T02:55:16;0.90;;;0.52;;
72791;SDS011;60907;53.268;8.764;2022-09-01T02:57:45;0.80;;;0.50;;
72791;SDS011;60907;53.268;8.764;2022-09-01T03:00:12;1.23;;;0.63;;
72791;SDS011;60907;53.268;8.764;2022-09-01T03:02:55;1.02;;;0.45;;
72791;SDS011;60907;53.268;8.764;2022-09-01T03:05:23;0.82;;;0.60;;
72791;SDS011;60907;53.268;8.764;2022-09-01T03:08:24;1.77;;;0.90;;
72791;SDS011;60907;53.268;8.764;2022-09-01T03:10:43;1.17;;;0.60;;
72791;SDS011;60907;53.268;8.764;2022-09-01T03:13:14;0.70;;;0.50;;
72791;SDS011;60907;53.268;8.764;2022-09-01T03:15:41;0.80;;;0.50;;
72791;SDS011;60907;53.268;8.764;2022-09-01T03:18:08;1.30;;;0.65;;
72791;SDS011;60907;53.268;8.764;2022-09-01T03:20:35;1.70;;;0.93;;
72791;SDS011;60907;53.268;8.764;2022-09-01T03:23:03;2.35;;;0.90;;
72791;SDS011;60907;53.268;8.764;2022-09-01T03:25:32;1.63;;;0.50;;
72791;SDS011;60907;53.268;8.764;2022-09-01T03:27:58;1.15;;;0.55;;
72791;SDS011;60907;53.268;8.764;2022-09-01T03:30:26;2.35;;;1.00;;
72791;SDS011;60907;53.268;8.764;2022-09-01T03:32:53;0.98;;;0.73;;
72791;SDS011;60907;53.268;8.764;2022-09-01T03:35:19;1.42;;;0.88;;
72791;SDS011;60907;53.268;8.764;2022-09-01T03:37:44;2.67;;;0.88;;
72791;SDS011;60907;53.268;8.764;2022-09-01T03:40:10;1.05;;;0.70;;
72791;SDS011;60907;53.268;8.764;2022-09-01T03:45:03;1.55;;;0.88;;
72791;SDS011;60907;53.268;8.764;2022-09-01T03:47:34;1.73;;;0.80;;
72791;SDS011;60907;53.268;8.764;2022-09-01T03:50:05;1.30;;;0.93;;
72791;SDS011;60907;53.268;8.764;2022-09-01T03:52:35;1.02;;;0.82;;
72791;SDS011;60907;53.268;8.764;2022-09-01T03:55:00;1.20;;;0.80;;
72791;SDS011;60907;53.268;8.764;2022-09-01T03:57:26;1.63;;;1.00;;
72791;SDS011;60907;53.268;8.764;2022-09-01T03:59:52;1.13;;;0.90;;
72791;SDS011;60907;53.268;8.764;2022-09-01T04:02:18;1.02;;;0.82;;
72791;SDS011;60907;53.268;8.764;2022-09-01T04:04:44;1.50;;;0.73;;
72791;SDS011;60907;53.268;8.764;2022-09-01T04:07:10;2.00;;;0.95;;
72791;SDS011;60907;53.268;8.764;2022-09-01T04:09:35;1.33;;;0.80;;
72791;SDS011;60907;53.268;8.764;2022-09-01T04:12:02;1.27;;;1.02;;
72791;SDS011;60907;53.268;8.764;2022-09-01T04:14:32;1.73;;;0.88;;
72791;SDS011;60907;53.268;8.764;2022-09-01T04:16:58;1.58;;;1.02;;
72791;SDS011;60907;53.268;8.764;2022-09-01T04:19:42;1.50;;;0.85;;
72791;SDS011;60907;53.268;8.764;2022-09-01T04:22:08;1.75;;;0.90;;
72791;SDS011;60907;53.268;8.764;2022-09-01T04:24:37;1.42;;;1.10;;
72791;SDS011;60907;53.268;8.764;2022-09-01T04:27:06;1.42;;;1.00;;
72791;SDS011;60907;53.268;8.764;2022-09-01T04:29:33;1.65;;;0.98;;
72791;SDS011;60907;53.268;8.764;2022-09-01T04:31:59;2.45;;;0.88;;
72791;SDS011;60907;53.268;8.764;2022-09-01T04:34:27;1.55;;;0.98;;
72791;SDS011;60907;53.268;8.764;2022-09-01T04:36:55;2.22;;;0.70;;
72791;SDS011;60907;53.268;8.764;2022-09-01T04:39:22;0.95;;;0.77;;
72791;SDS011;60907;53.268;8.764;2022-09-01T04:41:48;2.90;;;0.80;;
72791;SDS011;60907;53.268;8.764;2022-09-01T04:44:15;1.73;;;0.80;;
72791;SDS011;60907;53.268;8.764;2022-09-01T04:46:43;0.93;;;0.82;;
72791;SDS011;60907;53.268;8.764;2022-09-01T04:49:12;1.10;;;0.82;;
72791;SDS011;60907;53.268;8.764;2022-09-01T04:51:43;0.80;;;0.60;;
72791;SDS011;60907;53.268;8.764;2022-09-01T04:54:11;1.33;;;1.02;;
72791;SDS011;60907;53.268;8.764;2022-09-01T04:56:39;2.22;;;0.70;;
72791;SDS011;60907;53.268;8.764;2022-09-01T04:59:07;1.52;;;0.90;;
72791;SDS011;60907;53.268;8.764;2022-09-01T05:01:34;1.30;;;0.77;;
72791;SDS011;60907;53.268;8.764;2022-09-01T05:04:11;1.42;;;1.00;;
72791;SDS011;60907;53.268;8.764;2022-09-01T05:06:41;1.45;;;0.98;;
72791;SDS011;60907;53.268;8.764;2022-09-01T05:09:09;1.85;;;0.77;;
72791;SDS011;60907;53.268;8.764;2022-09-01T05:11:36;2.03;;;1.02;;
72791;SDS011;60907;53.268;8.764;2022-09-01T05:16:29;1.13;;;0.73;;
72791;SDS011;60907;53.268;8.764;2022-09-01T05:18:56;2.65;;;0.85;;
72791;SDS011;60907;53.268;8.764;2022-09-01T05:21:22;2.38;;;0.90;;
72791;SDS011;60907;53.268;8.764;2022-09-01T05:23:52;1.60;;;0.95;;
72791;SDS011;60907;53.268;8.764;2022-09-01T05:26:19;4.20;;;0.73;;
72791;SDS011;60907;53.268;8.764;2022-09-01T05:28:48;1.77;;;0.73;;
72791;SDS011;60907;53.268;8.764;2022-09-01T05:31:18;2.03;;;0.82;;
72791;SDS011;60907;53.268;8.764;2022-09-01T05:33:44;1.15;;;0.68;;
72791;SDS011;60907;53.268;8.764;2022-09-01T05:36:13;1.50;;;0.95;;
72791;SDS011;60907;53.268;8.764;2022-09-01T05:38:44;1.77;;;0.65;;
72791;SDS011;60907;53.268;8.764;2022-09-01T05:41:10;1.60;;;0.70;;
72791;SDS011;60907;53.268;8.764;2022-09-01T05:43:39;0.75;;;0.60;;
72791;SDS011;60907;53.268;8.764;2022-09-01T05:46:13;1.52;;;0.73;;
72791;SDS011;60907;53.268;8.764;2022-09-01T05:48:41;1.77;;;1.08;;
72791;SDS011;60907;53.268;8.764;2022-09-01T05:51:10;1.98;;;0.93;;
72791;SDS011;60907;53.268;8.764;2022-09-01T05:53:39;1.45;;;1.02;;
72791;SDS011;60907;53.268;8.764;2022-09-01T05:56:05;1.45;;;1.08;;
72791;SDS011;60907;53.268;8.764;2022-09-01T05:58:33;3.20;;;0.80;;
72791;SDS011;60907;53.268;8.764;2022-09-01T06:00:59;0.90;;;0.80;;
72791;SDS011;60907;53.268;8.764;2022-09-01T06:03:25;2.50;;;1.50;;
72791;SDS011;60907;53.268;8.764;2022-09-01T06:05:52;1.65;;;1.17;;
72791;SDS011;60907;53.268;8.764;2022-09-01T06:08:19;2.70;;;1.20;;
72791;SDS011;60907;53.268;8.764;2022-09-01T06:10:47;1.50;;;1.02;;
72791;SDS011;60907;53.268;8.764;2022-09-01T06:13:14;3.60;;;1.20;;
72791;SDS011;60907;53.268;8.764;2022-09-01T06:15:41;1.70;;;1.20;;
72791;SDS011;60907;53.268;8.764;2022-09-01T06:18:11;2.10;;;0.93;;
72791;SDS011;60907;53.268;8.764;2022-09-01T06:20:37;1.88;;;1.02;;
72791;SDS011;60907;53.268;8.764;2022-09-01T06:23:04;2.50;;;1.13;;
72791;SDS011;60907;53.268;8.764;2022-09-01T06:25:30;1.20;;;0.90;;
72791;SDS011;60907;53.268;8.764;2022-09-01T06:27:56;1.33;;;1.02;;
72791;SDS011;60907;53.268;8.764;2022-09-01T06:30:22;1.13;;;1.02;;
72791;SDS011;60907;53.268;8.764;2022-09-01T06:32:51;1.98;;;1.20;;
72791;SDS011;60907;53.268;8.764;2022-09-01T06:35:17;2.53;;;1.38;;
72791;SDS011;60907;53.268;8.764;2022-09-01T06:37:44;2.15;;;1.10;;
72791;SDS011;60907;53.268;8.764;2022-09-01T06:40:11;2.85;;;1.23;;
72791;SDS011;60907;53.268;8.764;2022-09-01T06:42:44;1.20;;;1.10;;
72791;SDS011;60907;53.268;8.764;2022-09-01T06:45:14;1.52;;;1.25;;
72791;SDS011;60907;53.268;8.764;2022-09-01T06:50:08;1.42;;;1.00;;
72791;SDS011;60907;53.268;8.764;2022-09-01T06:52:35;3.20;;;1.17;;
72791;SDS011;60907;53.268;8.764;2022-09-01T06:55:04;1.20;;;0.70;;
72791;SDS011;60907;53.268;8.764;2022-09-01T06:57:30;2.10;;;1.20;;
72791;SDS011;60907;53.268;8.764;2022-09-01T06:59:55;1.90;;;1.02;;
72791;SDS011;60907;53.268;8.764;2022-09-01T07:02:21;1.90;;;0.95;;
72791;SDS011;60907;53.268;8.764;2022-09-01T07:04:46;1.58;;;1.00;;
72791;SDS011;60907;53.268;8.764;2022-09-01T07:07:13;1.77;;;0.88;;
72791;SDS011;60907;53.268;8.764;2022-09-01T07:09:39;1.73;;;1.00;;
72791;SDS011;60907;53.268;8.764;2022-09-01T07:12:05;1.98;;;0.85;;
72791;SDS011;60907;53.268;8.764;2022-09-01T07:14:31;1.67;;;1.10;;
72791;SDS011;60907;53.268;8.764;2022-09-01T07:16:56;2.05;;;0.82;;
72791;SDS011;60907;53.268;8.764;2022-09-01T07:19:22;1.70;;;0.93;;
72791;SDS011;60907;53.268;8.764;2022-09-01T07:21:50;1.90;;;0.70;;
72791;SDS011;60907;53.268;8.764;2022-09-01T07:24:16;2.38;;;0.82;;
72791;SDS011;60907;53.268;8.764;2022-09-01T07:26:43;2.33;;;1.00;;
72791;SDS011;60907;53.268;8.764;2022-09-01T07:29:13;1.50;;;0.85;;
72791;SDS011;60907;53.268;8.764;2022-09-01T07:31:40;1.27;;;0.70;;
72791;SDS011;60907;53.268;8.764;2022-09-01T07:34:08;1.25;;;0.70;;
72791;SDS011;60907;53.268;8.764;2022-09-01T07:36:37;1.58;;;0.70;;
72791;SDS011;60907;53.268;8.764;2022-09-01T07:39:04;1.48;;;0.77;;
72791;SDS011;60907;53.268;8.764;2022-09-01T07:41:29;2.65;;;0.77;;
72791;SDS011;60907;53.268;8.764;2022-09-01T07:43:56;2.75;;;0.43;;
72791;SDS011;60907;53.268;8.764;2022-09-01T07:46:24;1.48;;;0.52;;
72791;SDS011;60907;53.268;8.764;2022-09-01T07:48:54;1.50;;;0.80;;
72791;SDS011;60907;53.268;8.764;2022-09-01T07:51:20;2.58;;;0.80;;
72791;SDS011;60907;53.268;8.764;2022-09-01T07:53:47;0.80;;;0.63;;
72791;SDS011;60907;53.268;8.764;2022-09-01T07:56:14;1.05;;;0.40;;
72791;SDS011;60907;53.268;8.764;2022-09-01T07:58:42;1.10;;;0.40;;
72791;SDS011;60907;53.268;8.764;2022-09-01T08:01:09;2.17;;;0.45;;
72791;SDS011;60907;53.268;8.764;2022-09-01T08:03:38;1.38;;;0.40;;
72791;SDS011;60907;53.268;8.764;2022-09-01T08:06:05;2.38;;;0.43;;
72791;SDS011;60907;53.268;8.764;2022-09-01T08:08:32;0.52;;;0.32;;
72791;SDS011;60907;53.268;8.764;2022-09-01T08:10:58;1.65;;;0.32;;
72791;SDS011;60907;53.268;8.764;2022-09-01T08:13:24;1.00;;;0.32;;
72791;SDS011;60907;53.268;8.764;2022-09-01T08:15:49;2.70;;;0.63;;
72791;SDS011;60907;53.268;8.764;2022-09-01T08:18:15;1.58;;;0.52;;
72791;SDS011;60907;53.268;8.764;2022-09-01T08:20:41;1.65;;;0.38;;
72791;SDS011;60907;53.268;8.764;2022-09-01T08:23:16;1.77;;;0.25;;
72791;SDS011;60907;53.268;8.764;2022-09-01T08:25:44;1.67;;;0.32;;
72791;SDS011;60907;53.268;8.764;2022-09-01T08:28:10;0.55;;;0.32;;
72791;SDS011;60907;53.268;8.764;2022-09-01T08:30:38;1.13;;;0.30;;
72791;SDS011;60907;53.268;8.764;2022-09-01T08:33:05;0.35;;;0.25;;
72791;SDS011;60907;53.268;8.764;2022-09-01T08:35:31;0.63;;;0.40;;
72791;SDS011;60907;53.268;8.764;2022-09-01T08:37:56;0.85;;;0.30;;
72791;SDS011;60907;53.268;8.764;2022-09-01T08:40:22;1.60;;;0.60;;
72791;SDS011;60907;53.268;8.764;2022-09-01T08:42:52;0.40;;;0.30;;
72791;SDS011;60907;53.268;8.764;2022-09-01T08:45:46;2.10;;;0.20;;
72791;SDS011;60907;53.268;8.764;2022-09-01T08:50:44;0.55;;;0.22;;
72791;SDS011;60907;53.268;8.764;2022-09-01T08:53:25;0.40;;;0.30;;
72791;SDS011;60907;53.268;8.764;2022-09-01T08:56:02;0.20;;;0.13;;
72791;SDS011;60907;53.268;8.764;2022-09-01T08:58:29;0.40;;;0.20;;
72791;SDS011;60907;53.268;8.764;2022-09-01T09:08:39;2.25;;;0.13;;
72791;SDS011;60907;53.268;8.764;2022-09-01T09:11:24;1.00;;;0.30;;
72791;SDS011;60907;53.268;8.764;2022-09-01T09:19:22;0.77;;;0.25;;
72791;SDS011;60907;53.268;8.764;2022-09-01T09:21:51;0.50;;;0.30;;
72791;SDS011;60907;53.268;8.764;2022-09-01T09:27:15;0.63;;;0.22;;
72791;SDS011;60907;53.268;8.764;2022-09-01T09:29:55;0.40;;;0.30;;
72791;SDS011;60907;53.268;8.764;2022-09-01T09:32:22;0.40;;;0.13;;
72791;SDS011;60907;53.268;8.764;2022-09-01T09:34:49;2.85;;;0.35;;
72791;SDS011;60907;53.268;8.764;2022-09-01T09:37:16;0.40;;;0.13;;
72791;SDS011;60907;53.268;8.764;2022-09-01T09:40:10;0.63;;;0.32;;
72791;SDS011;60907;53.268;8.764;2022-09-01T09:42:40;0.25;;;0.13;;
72791;SDS011;60907;53.268;8.764;2022-09-01T09:45:15;1.15;;;0.25;;
72791;SDS011;60907;53.268;8.764;2022-09-01T09:47:57;0.47;;;0.20;;
72791;SDS011;60907;53.268;8.764;2022-09-01T09:50:27;0.50;;;0.30;;
72791;SDS011;60907;53.268;8.764;2022-09-01T09:55:48;1.13;;;0.63;;
72791;SDS011;60907;53.268;8.764;2022-09-01T09:58:17;0.88;;;0.28;;
72791;SDS011;60907;53.268;8.764;2022-09-01T10:01:00;0.60;;;0.30;;
72791;SDS011;60907;53.268;8.764;2022-09-01T10:03:53;2.38;;;0.43;;
72791;SDS011;60907;53.268;8.764;2022-09-01T10:08:57;1.15;;;0.60;;
72791;SDS011;60907;53.268;8.764;2022-09-01T10:11:25;0.73;;;0.40;;
72791;SDS011;60907;53.268;8.764;2022-09-01T10:14:03;1.13;;;0.20;;
72791;SDS011;60907;53.268;8.764;2022-09-01T10:16:30;1.13;;;0.20;;
72791;SDS011;60907;53.268;8.764;2022-09-01T10:18:58;0.60;;;0.43;;
72791;SDS011;60907;53.268;8.764;2022-09-01T10:21:37;1.05;;;0.22;;
72791;SDS011;60907;53.268;8.764;2022-09-01T10:24:27;1.10;;;0.40;;
72791;SDS011;60907;53.268;8.764;2022-09-01T10:26:53;0.85;;;0.25;;
72791;SDS011;60907;53.268;8.764;2022-09-01T10:31:52;2.10;;;0.38;;
72791;SDS011;60907;53.268;8.764;2022-09-01T10:34:18;1.33;;;0.30;;
72791;SDS011;60907;53.268;8.764;2022-09-01T10:36:45;1.48;;;0.32;;
72791;SDS011;60907;53.268;8.764;2022-09-01T10:39:12;0.60;;;0.32;;
72791;SDS011;60907;53.268;8.764;2022-09-01T10:41:43;1.00;;;0.40;;
72791;SDS011;60907;53.268;8.764;2022-09-01T10:44:17;0.75;;;0.20;;
72791;SDS011;60907;53.268;8.764;2022-09-01T10:46:45;0.60;;;0.40;;
72791;SDS011;60907;53.268;8.764;2022-09-01T10:49:17;1.42;;;0.22;;
72791;SDS011;60907;53.268;8.764;2022-09-01T10:52:05;0.50;;;0.22;;
72791;SDS011;60907;53.268;8.764;2022-09-01T10:59:42;0.70;;;0.40;;
72791;SDS011;60907;53.268;8.764;2022-09-01T11:02:09;3.08;;;0.40;;
72791;SDS011;60907;53.268;8.764;2022-09-01T11:07:49;0.63;;;0.22;;
72791;SDS011;60907;53.268;8.764;2022-09-01T11:15:43;1.33;;;0.22;;
72791;SDS011;60907;53.268;8.764;2022-09-01T11:18:16;1.80;;;0.30;;
72791;SDS011;60907;53.268;8.764;2022-09-01T11:20:50;3.22;;;0.40;;
72791;SDS011;60907;53.268;8.764;2022-09-01T11:30:45;2.28;;;0.22;;
72791;SDS011;60907;53.268;8.764;2022-09-01T11:36:11;0.50;;;0.30;;
72791;SDS011;60907;53.268;8.764;2022-09-01T11:41:31;1.48;;;0.30;;
72791;SDS011;60907;53.268;8.764;2022-09-01T11:44:10;0.95;;;0.30;;
72791;SDS011;60907;53.268;8.764;2022-09-01T11:46:39;0.70;;;0.30;;
72791;SDS011;60907;53.268;8.764;2022-09-01T11:49:17;0.43;;;0.30;;
72791;SDS011;60907;53.268;8.764;2022-09-01T11:51:51;0.80;;;0.15;;
72791;SDS011;60907;53.268;8.764;2022-09-01T11:54:16;0.50;;;0.20;;
72791;SDS011;60907;53.268;8.764;2022-09-01T11:56:42;3.15;;;0.45;;
72791;SDS011;60907;53.268;8.764;2022-09-01T11:59:07;0.50;;;0.40;;
72791;SDS011;60907;53.268;8.764;2022-09-01T12:01:34;0.52;;;0.28;;
72791;SDS011;60907;53.268;8.764;2022-09-01T12:04:21;0.25;;;0.25;;
72791;SDS011;60907;53.268;8.764;2022-09-01T12:07:00;2.58;;;0.52;;
72791;SDS011;60907;53.268;8.764;2022-09-01T12:09:31;0.82;;;0.22;;
72791;SDS011;60907;53.268;8.764;2022-09-01T12:12:01;1.00;;;0.22;;
72791;SDS011;60907;53.268;8.764;2022-09-01T12:14:27;0.60;;;0.35;;
72791;SDS011;60907;53.268;8.764;2022-09-01T12:16:57;2.35;;;0.20;;
72791;SDS011;60907;53.268;8.764;2022-09-01T12:19:30;0.30;;;0.30;;
72791;SDS011;60907;53.268;8.764;2022-09-01T12:22:01;0.70;;;0.30;;
72791;SDS011;60907;53.268;8.764;2022-09-01T12:24:33;0.45;;;0.30;;
72791;SDS011;60907;53.268;8.764;2022-09-01T12:27:00;0.17;;;0.10;;
72791;SDS011;60907;53.268;8.764;2022-09-01T12:29:26;0.50;;;0.22;;
72791;SDS011;60907;53.268;8.764;2022-09-01T12:31:52;0.75;;;0.10;;
72791;SDS011;60907;53.268;8.764;2022-09-01T12:34:25;0.70;;;0.40;;
72791;SDS011;60907;53.268;8.764;2022-09-01T12:39:46;1.58;;;0.17;;
72791;SDS011;60907;53.268;8.764;2022-09-01T12:45:04;0.25;;;0.20;;
72791;SDS011;60907;53.268;8.764;2022-09-01T12:49:57;0.95;;;0.30;;
72791;SDS011;60907;53.268;8.764;2022-09-01T12:52:47;0.30;;;0.22;;
72791;SDS011;60907;53.268;8.764;2022-09-01T12:55:19;0.20;;;0.20;;
72791;SDS011;60907;53.268;8.764;2022-09-01T12:57:59;0.70;;;0.13;;
72791;SDS011;60907;53.268;8.764;2022-09-01T13:00:31;0.52;;;0.30;;
72791;SDS011;60907;53.268;8.764;2022-09-01T13:03:04;1.73;;;0.20;;
72791;SDS011;60907;53.268;8.764;2022-09-01T13:08:10;0.40;;;0.22;;
72791;SDS011;60907;53.268;8.764;2022-09-01T13:10:42;0.30;;;0.20;;
72791;SDS011;60907;53.268;8.764;2022-09-01T13:13:18;1.83;;;0.32;;
72791;SDS011;60907;53.268;8.764;2022-09-01T13:15:45;1.38;;;0.13;;
72791;SDS011;60907;53.268;8.764;2022-09-01T13:18:12;0.30;;;0.10;;
72791;SDS011;60907;53.268;8.764;2022-09-01T13:20:39;0.90;;;0.30;;
72791;SDS011;60907;53.268;8.764;2022-09-01T13:23:06;0.60;;;0.22;;
72791;SDS011;60907;53.268;8.764;2022-09-01T13:25:32;0.85;;;0.32;;
72791;SDS011;60907;53.268;8.764;2022-09-01T13:27:57;2.13;;;0.22;;
72791;SDS011;60907;53.268;8.764;2022-09-01T13:30:24;0.20;;;0.20;;
72791;SDS011;60907;53.268;8.764;2022-09-01T13:32:53;0.43;;;0.20;;
72791;SDS011;60907;53.268;8.764;2022-09-01T13:35:19;0.68;;;0.30;;
72791;SDS011;60907;53.268;8.764;2022-09-01T13:37:46;1.23;;;0.28;;
72791;SDS011;60907;53.268;8.764;2022-09-01T13:40:12;0.22;;;0.20;;
72791;SDS011;60907;53.268;8.764;2022-09-01T13:42:46;0.77;;;0.30;;
72791;SDS011;60907;53.268;8.764;2022-09-01T13:45:16;1.85;;;0.32;;
72791;SDS011;60907;53.268;8.764;2022-09-01T13:50:09;0.60;;;0.30;;
72791;SDS011;60907;53.268;8.764;2022-09-01T13:52:42;1.42;;;0.35;;
72791;SDS011;60907;53.268;8.764;2022-09-01T13:55:09;0.95;;;0.25;;
72791;SDS011;60907;53.268;8.764;2022-09-01T13:57:35;2.38;;;0.13;;
72791;SDS011;60907;53.268;8.764;2022-09-01T14:00:02;0.43;;;0.35;;
72791;SDS011;60907;53.268;8.764;2022-09-01T14:02:34;0.35;;;0.13;;
72791;SDS011;60907;53.268;8.764;2022-09-01T14:05:00;0.35;;;0.17;;
72791;SDS011;60907;53.268;8.764;2022-09-01T14:07:26;0.82;;;0.30;;
72791;SDS011;60907;53.268;8.764;2022-09-01T14:09:52;1.60;;;0.40;;
72791;SDS011;60907;53.268;8.764;2022-09-01T14:12:19;0.40;;;0.30;;
72791;SDS011;60907;53.268;8.764;2022-09-01T14:14:44;0.40;;;0.20;;
72791;SDS011;60907;53.268;8.764;2022-09-01T14:17:09;1.77;;;0.40;;
72791;SDS011;60907;53.268;8.764;2022-09-01T14:19:35;1.13;;;0.30;;
72791;SDS011;60907;53.268;8.764;2022-09-01T14:22:01;1.30;;;0.32;;
72791;SDS011;60907;53.268;8.764;2022-09-01T14:24:29;0.57;;;0.30;;
72791;SDS011;60907;53.268;8.764;2022-09-01T14:26:55;2.05;;;0.25;;
72791;SDS011;60907;53.268;8.764;2022-09-01T14:29:21;0.77;;;0.35;;
72791;SDS011;60907;53.268;8.764;2022-09-01T14:31:46;0.30;;;0.22;;
72791;SDS011;60907;53.268;8.764;2022-09-01T14:34:12;0.22;;;0.22;;
72791;SDS011;60907;53.268;8.764;2022-09-01T14:36:39;0.60;;;0.22;;
72791;SDS011;60907;53.268;8.764;2022-09-01T14:39:04;0.55;;;0.30;;
72791;SDS011;60907;53.268;8.764;2022-09-01T14:41:30;1.38;;;0.35;;
72791;SDS011;60907;53.268;8.764;2022-09-01T14:43:56;0.43;;;0.13;;
72791;SDS011;60907;53.268;8.764;2022-09-01T14:46:28;0.28;;;0.20;;
72791;SDS011;60907;53.268;8.764;2022-09-01T14:48:55;0.20;;;0.20;;
72791;SDS011;60907;53.268;8.764;2022-09-01T14:51:25;0.52;;;0.30;;
72791;SDS011;60907;53.268;8.764;2022-09-01T14:53:52;1.08;;;0.13;;
72791;SDS011;60907;53.268;8.764;2022-09-01T14:56:18;1.08;;;0.15;;
72791;SDS011;60907;53.268;8.764;2022-09-01T14:58:44;0.60;;;0.32;;
72791;SDS011;60907;53.268;8.764;2022-09-01T15:01:11;1.77;;;0.20;;
72791;SDS011;60907;53.268;8.764;2022-09-01T15:03:39;0.90;;;0.17;;
72791;SDS011;60907;53.268;8.764;2022-09-01T15:06:05;0.40;;;0.22;;
72791;SDS011;60907;53.268;8.764;2022-09-01T15:08:30;2.40;;;0.40;;
72791;SDS011;60907;53.268;8.764;2022-09-01T15:10:56;1.25;;;0.30;;
72791;SDS011;60907;53.268;8.764;2022-09-01T15:13:21;0.40;;;0.20;;
72791;SDS011;60907;53.268;8.764;2022-09-01T15:15:46;0.50;;;0.30;;
72791;SDS011;60907;53.268;8.764;2022-09-01T15:18:12;2.10;;;0.32;;
72791;SDS011;60907;53.268;8.764;2022-09-01T15:20:38;0.75;;;0.20;;
72791;SDS011;60907;53.268;8.764;2022-09-01T15:23:15;1.83;;;0.30;;
72791;SDS011;60907;53.268;8.764;2022-09-01T15:25:46;0.60;;;0.30;;
72791;SDS011;60907;53.268;8.764;2022-09-01T15:28:12;1.27;;;0.30;;
72791;SDS011;60907;53.268;8.764;2022-09-01T15:30:38;1.98;;;0.20;;
72791;SDS011;60907;53.268;8.764;2022-09-01T15:33:05;1.60;;;0.32;;
72791;SDS011;60907;53.268;8.764;2022-09-01T15:35:31;0.30;;;0.20;;
72791;SDS011;60907;53.268;8.764;2022-09-01T15:37:57;1.73;;;0.40;;
72791;SDS011;60907;53.268;8.764;2022-09-01T15:40:22;0.88;;;0.32;;
72791;SDS011;60907;53.268;8.764;2022-09-01T15:42:48;0.40;;;0.20;;
72791;SDS011;60907;53.268;8.764;2022-09-01T15:45:15;7.70;;;0.75;;
72791;SDS011;60907;53.268;8.764;2022-09-01T15:47:42;0.63;;;0.30;;
72791;SDS011;60907;53.268;8.764;2022-09-01T15:50:09;0.40;;;0.22;;
72791;SDS011;60907;53.268;8.764;2022-09-01T15:55:43;0.55;;;0.30;;
72791;SDS011;60907;53.268;8.764;2022-09-01T15:58:10;1.60;;;0.20;;
72791;SDS011;60907;53.268;8.764;2022-09-01T16:00:37;0.50;;;0.30;;
72791;SDS011;60907;53.268;8.764;2022-09-01T16:03:03;0.82;;;0.30;;
72791;SDS011;60907;53.268;8.764;2022-09-01T16:05:29;1.38;;;0.40;;
72791;SDS011;60907;53.268;8.764;2022-09-01T16:07:55;0.88;;;0.32;;
72791;SDS011;60907;53.268;8.764;2022-09-01T16:10:21;3.63;;;0.65;;
72791;SDS011;60907;53.268;8.764;2022-09-01T16:12:47;1.52;;;0.32;;
72791;SDS011;60907;53.268;8.764;2022-09-01T16:15:14;1.95;;;0.30;;
72791;SDS011;60907;53.268;8.764;2022-09-01T16:20:38;1.35;;;0.32;;
72791;SDS011;60907;53.268;8.764;2022-09-01T16:25:44;1.35;;;0.30;;
72791;SDS011;60907;53.268;8.764;2022-09-01T16:28:21;1.30;;;0.60;;
72791;SDS011;60907;53.268;8.764;2022-09-01T16:30:48;0.82;;;0.60;;